Terminal Aerodrome Forecast
Issued by NWS

Home | Current Version | Previous Version | Text Only | Print | Product List | Glossary On
Versions: 1 2 3 4 5 6 7 8 9 10 11 12 13 14 15 16 17 18
545
FTUS42 KMLB 080235 AAA
TAFFPR
TAF AMD
KFPR 080235Z 0803/0824 00000KT 6SM BR MIFG SKC
      TEMPO 0808/0812 5SM BR
     FM081500 35007KT P6SM SCT030 SCT100=

USA.gov is the U.S. government's official web portal to all federal, state and local government web resources and services.